Krasnye Baki, Russia
Current Conditions -  °F | °C
As of 9:30 PM on Friday 24 Oct 2014 (Local Time) from UWGG Reporting Station
Clear Clear  
Wind Chill:   Ceiling: Unl
Heat Index: 14°   Visibility: 6mi
Dew Point:   Wind: 9mph
Humidity: 79%   Direction: 330°NNW
Pressure: 30.5"   Gusts: NA
Location:  57.13°N, 45.17°E
Report Text: UWGG 241830Z 33004MPS CAVOK M10/M13 Q1033 NOSIG 36420245 RMKQFE768
Loading
Personal Weather Stations






























Interactive Weather Map
Tropical Storm Tracking
New forecast layout! Learn more

10-Day Weather Forecast

Advertisements
Track Severe Weather on mobile